Time;durP1;ratioP1;P1;durP2;ratioP2;P2;SDS_P1;SDS_P2;PMS_P1;PMS_P2;Temp;Humidity;BMP_temperature;BMP_pressure;BME280_temperature;BME280_humidity;BME280_pressure;Samples;Min_cycle;Max_cycle;Signal;HPM_P1;HPM_P2
2021/11/28 00:00:26;;;;;;;0.15;0.00;;;;;;;19.37;74.55;100879.50;4920366;29;20051;-66
2021/11/28 00:02:55;;;;;;;0.13;0.13;;;;;;;19.39;74.91;100870.53;4910421;29;20041;-66
2021/11/28 00:05:25;;;;;;;1.15;0.30;;;;;;;19.41;75.09;100870.53;4908329;29;20720;-66
2021/11/28 00:08:11;;;;;;;0.63;0.17;;;;;;;19.42;74.88;100875.84;4909370;29;20041;-65
2021/11/28 00:16:08;;;;;;;2.83;0.60;;;;;;;19.45;75.01;100862.38;4888758;29;20506;-65
2021/11/28 00:18:35;;;;;;;0.60;0.60;;;;;;;19.46;75.15;100848.13;4927950;29;20517;-65
2021/11/28 00:21:04;;;;;;;0.55;0.55;;;;;;;19.47;75.19;100846.34;4923205;29;20058;-65
2021/11/28 00:23:33;;;;;;;0.40;0.40;;;;;;;19.52;75.28;100849.78;4922854;29;20092;-65
2021/11/28 00:26:01;;;;;;;0.35;0.35;;;;;;;19.53;75.21;100846.22;4912654;29;20048;-66
2021/11/28 00:28:29;;;;;;;0.70;0.47;;;;;;;19.54;74.96;100856.00;4927047;29;20445;-65
2021/11/28 00:30:57;;;;;;;1.98;0.55;;;;;;;19.53;74.93;100859.59;4910862;29;20446;-65
2021/11/28 00:33:25;;;;;;;0.88;0.30;;;;;;;19.49;75.29;100873.97;4919145;29;20492;-65
2021/11/28 00:35:54;;;;;;;0.47;0.17;;;;;;;19.44;75.21;100881.16;4908929;29;20055;-65
2021/11/28 00:38:23;;;;;;;0.30;0.28;;;;;;;19.43;75.21;100882.06;4914253;29;20503;-66
2021/11/28 00:40:53;;;;;;;0.13;0.10;;;;;;;19.45;75.10;100894.53;4912724;29;20702;-66
2021/11/28 00:43:21;;;;;;;0.77;0.35;;;;;;;19.48;75.28;100898.97;4910335;29;20682;-66
2021/11/28 00:45:49;;;;;;;2.28;1.20;;;;;;;19.54;75.22;100898.88;4911334;29;20052;-66
2021/11/28 00:48:18;;;;;;;1.63;0.63;;;;;;;19.56;75.06;100875.59;4919917;29;20055;-66
2021/11/28 00:50:47;;;;;;;1.05;0.77;;;;;;;19.58;74.97;100871.09;4912414;29;20374;-66
2021/11/28 00:53:19;;;;;;;2.08;1.08;;;;;;;19.61;74.94;100854.09;4926749;29;20056;-67
2021/11/28 00:55:48;;;;;;;4.13;1.80;;;;;;;19.68;74.93;100861.97;4907836;29;20048;-67
2021/11/28 00:58:17;;;;;;;3.13;0.82;;;;;;;19.79;74.94;100845.69;4896008;29;20107;-66
2021/11/28 01:00:45;;;;;;;5.13;1.40;;;;;;;19.87;74.45;100836.56;4896802;29;20055;-67
2021/11/28 01:03:13;;;;;;;3.63;1.45;;;;;;;19.99;74.26;100826.50;4914103;29;20049;-67
2021/11/28 01:05:41;;;;;;;2.67;1.38;;;;;;;20.01;73.70;100819.31;4921195;29;20062;-67
2021/11/28 01:08:09;;;;;;;1.58;0.60;;;;;;;20.04;73.25;100803.16;4928505;29;20107;-67
2021/11/28 01:10:36;;;;;;;3.47;1.30;;;;;;;20.08;73.08;100799.50;4916095;29;20411;-67
2021/11/28 01:13:04;;;;;;;3.13;1.38;;;;;;;20.18;72.57;100807.28;4919443;29;20496;-66
2021/11/28 01:15:33;;;;;;;2.20;0.70;;;;;;;20.25;72.03;100806.22;4929868;29;20454;-67
2021/11/28 01:18:01;;;;;;;4.60;0.68;;;;;;;20.27;71.67;100808.88;4914815;29;21742;-66
2021/11/28 01:20:29;;;;;;;1.23;0.43;;;;;;;20.27;71.70;100807.09;4915453;29;20063;-66
2021/11/28 01:22:57;;;;;;;0.30;0.22;;;;;;;20.27;72.12;100824.97;4915999;29;20084;-66
2021/11/28 01:25:25;;;;;;;1.58;0.75;;;;;;;20.23;72.06;100842.91;4902074;29;20492;-66
2021/11/28 01:27:53;;;;;;;2.03;0.50;;;;;;;20.22;71.95;100837.56;4898686;29;20055;-66
2021/11/28 01:30:21;;;;;;;2.40;0.93;;;;;;;20.20;71.99;100834.06;4925218;29;20067;-66
2021/11/28 01:32:51;;;;;;;1.88;0.93;;;;;;;20.24;72.02;100836.63;4915659;29;20107;-67
2021/11/28 01:35:19;;;;;;;2.50;1.15;;;;;;;20.31;71.54;100840.06;4884159;29;20056;-66
2021/11/28 01:37:48;;;;;;;5.18;1.45;;;;;;;20.36;71.44;100838.16;4895357;29;20520;-66
2021/11/28 01:40:18;;;;;;;1.55;0.52;;;;;;;20.38;71.26;100835.47;4918557;29;20056;-66
2021/11/28 01:42:49;;;;;;;2.60;1.00;;;;;;;20.37;71.38;100828.34;4916697;29;20444;-66
2021/11/28 01:45:19;;;;;;;2.55;0.85;;;;;;;20.35;71.44;100831.03;4915509;29;20040;-66
2021/11/28 01:47:50;;;;;;;2.45;1.23;;;;;;;20.40;71.43;100828.28;4914762;29;20036;-66
2021/11/28 01:50:22;;;;;;;4.20;1.13;;;;;;;20.46;71.02;100818.28;4913551;29;20515;-67
2021/11/28 01:52:50;;;;;;;2.55;1.25;;;;;;;20.51;70.19;100810.13;4928550;29;20076;-67
2021/11/28 01:55:21;;;;;;;2.10;1.23;;;;;;;20.60;69.22;100817.94;4898021;29;20055;-66
2021/11/28 01:57:50;;;;;;;3.78;1.00;;;;;;;20.64;68.35;100814.25;4895747;29;20128;-69
2021/11/28 02:00:22;;;;;;;1.80;1.10;;;;;;;20.71;67.67;100793.53;4898558;29;20070;-67
2021/11/28 02:02:52;;;;;;;3.35;1.52;;;;;;;20.76;67.10;100781.75;4899765;29;20047;-67
2021/11/28 02:05:22;;;;;;;1.75;1.05;;;;;;;20.81;66.77;100789.66;4902374;29;20039;-67
2021/11/28 02:07:51;;;;;;;1.05;0.57;;;;;;;20.75;67.23;100784.47;4926978;29;20527;-66
2021/11/28 02:10:21;;;;;;;1.25;0.73;;;;;;;20.63;67.98;100759.72;4898443;29;20052;-68
2021/11/28 02:12:49;;;;;;;1.38;0.60;;;;;;;20.55;68.70;100766.19;4913787;29;20060;-66
2021/11/28 02:15:18;;;;;;;10.40;0.70;;;;;;;20.47;69.17;100763.72;4925389;29;20047;-66
2021/11/28 02:17:53;;;;;;;2.85;0.38;;;;;;;20.42;69.81;100756.69;4905305;29;20567;-66
2021/11/28 02:20:23;;;;;;;2.55;0.75;;;;;;;20.34;70.08;100758.69;4896306;29;20075;-66
2021/11/28 02:22:53;;;;;;;2.08;0.88;;;;;;;20.26;70.32;100756.16;4912888;29;20051;-66
2021/11/28 02:25:24;;;;;;;1.88;0.90;;;;;;;20.18;70.54;100752.78;4917978;29;20063;-67
2021/11/28 02:27:53;;;;;;;2.17;1.00;;;;;;;20.15;70.72;100760.91;4928051;29;20040;-66
2021/11/28 02:30:23;;;;;;;3.65;0.93;;;;;;;20.13;70.71;100770.78;4916013;29;20044;-66
2021/11/28 02:32:51;;;;;;;4.20;0.63;;;;;;;20.10;70.61;100765.47;4905623;29;20055;-67
2021/11/28 02:35:20;;;;;;;2.53;0.73;;;;;;;20.10;70.76;100785.13;4922188;29;20040;-66
2021/11/28 02:37:48;;;;;;;0.93;0.40;;;;;;;20.08;70.82;100776.25;4906970;29;20055;-66
2021/11/28 02:40:20;;;;;;;3.22;0.95;;;;;;;20.08;70.72;100788.78;4923346;29;20075;-66
2021/11/28 02:42:49;;;;;;;3.30;1.15;;;;;;;20.06;70.86;100785.25;4907657;29;20432;-67
2021/11/28 02:45:18;;;;;;;1.88;0.75;;;;;;;20.04;70.97;100798.66;4914089;29;20056;-66
2021/11/28 02:47:46;;;;;;;1.70;1.10;;;;;;;20.02;71.38;100794.28;4915067;29;20067;-66
2021/11/28 02:50:16;;;;;;;3.95;1.13;;;;;;;20.02;71.22;100811.22;4896589;29;20044;-66
2021/11/28 02:52:52;;;;;;;5.50;0.82;;;;;;;20.02;71.27;100816.56;4921321;29;20504;-66
2021/11/28 02:55:24;;;;;;;1.08;0.77;;;;;;;19.99;71.34;100815.78;4888213;29;20040;-67
2021/11/28 02:57:53;;;;;;;0.38;0.28;;;;;;;19.95;71.21;100811.41;4913763;29;20052;-66
2021/11/28 03:00:21;;;;;;;0.57;0.50;;;;;;;19.96;71.33;100807.78;4898501;29;20088;-66
2021/11/28 03:02:50;;;;;;;1.02;0.50;;;;;;;19.92;71.14;100804.31;4927966;29;20131;-66
2021/11/28 03:05:24;;;;;;;1.00;0.28;;;;;;;19.90;71.38;100811.50;4909895;29;20374;-66
2021/11/28 03:07:55;;;;;;;2.65;0.60;;;;;;;19.87;71.14;100823.19;4914189;29;20500;-66
2021/11/28 03:10:33;;;;;;;2.45;0.98;;;;;;;19.88;71.21;100816.03;4927211;29;20044;-66
2021/11/28 03:13:04;;;;;;;2.60;1.33;;;;;;;19.86;70.94;100826.78;4918638;29;20423;-66
2021/11/28 03:15:31;;;;;;;0.50;0.13;;;;;;;19.85;70.96;100833.03;4912462;29;20115;-66
2021/11/28 03:18:02;;;;;;;0.85;0.50;;;;;;;19.83;70.96;100831.28;4918328;29;20464;-66
2021/11/28 03:20:31;;;;;;;0.70;0.70;;;;;;;19.80;70.92;100848.34;4919691;29;20052;-66
2021/11/28 03:22:59;;;;;;;0.13;0.08;;;;;;;19.79;70.65;100848.34;4875618;29;20101;-65
2021/11/28 03:25:33;;;;;;;3.85;1.65;;;;;;;19.79;70.46;100854.59;4905401;29;20060;-66
2021/11/28 03:28:03;;;;;;;0.45;0.40;;;;;;;19.74;70.44;100851.16;4903595;29;20041;-65
2021/11/28 03:30:31;;;;;;;0.55;0.50;;;;;;;19.73;70.18;100857.41;4892076;29;20615;-66
2021/11/28 03:33:07;;;;;;;0.52;0.22;;;;;;;19.73;70.10;100862.75;4878997;29;20550;-66
2021/11/28 03:35:54;;;;;;;0.43;0.28;;;;;;;19.72;69.90;100870.81;4892617;29;20056;-66
2021/11/28 03:38:22;;;;;;;0.00;0.00;;;;;;;19.70;69.77;100873.53;4896129;29;20053;-66
2021/11/28 03:40:54;;;;;;;2.58;0.85;;;;;;;19.70;69.41;100878.88;4893218;29;20608;-67
2021/11/28 03:43:21;;;;;;;0.85;0.52;;;;;;;19.70;69.18;100878.00;4893412;29;20071;-66
2021/11/28 03:45:49;;;;;;;1.88;1.77;;;;;;;19.70;68.78;100884.25;4899179;29;20080;-66
2021/11/28 03:48:17;;;;;;;2.80;1.15;;;;;;;19.69;68.59;100885.16;4893889;29;20045;-67
2021/11/28 03:50:48;;;;;;;3.83;0.57;;;;;;;19.71;68.09;100886.00;4872890;29;20045;-66
2021/11/28 03:53:21;;;;;;;0.20;0.17;;;;;;;19.71;67.72;100879.78;4879025;29;20053;-66
2021/11/28 03:55:49;;;;;;;0.60;0.30;;;;;;;19.71;67.82;100877.09;4911943;29;20048;-66
2021/11/28 03:58:20;;;;;;;2.17;0.90;;;;;;;19.69;67.43;100882.47;4893507;29;20151;-66
2021/11/28 04:00:48;;;;;;;0.03;0.03;;;;;;;19.62;67.18;100888.91;4889860;29;20073;-66
2021/11/28 04:03:16;;;;;;;1.70;0.38;;;;;;;19.59;67.17;100899.66;4900761;29;20504;-66
2021/11/28 04:05:44;;;;;;;0.60;0.50;;;;;;;19.59;65.94;100914.84;4897244;29;20481;-65
2021/11/28 04:08:12;;;;;;;0.57;0.30;;;;;;;19.60;65.88;100917.50;4877913;29;20064;-66
2021/11/28 04:10:40;;;;;;;1.95;0.60;;;;;;;19.58;66.07;100919.31;4904434;29;20060;-66
2021/11/28 04:13:09;;;;;;;0.00;0.00;;;;;;;19.58;65.52;100915.75;4891892;29;20067;-65
2021/11/28 04:15:40;;;;;;;0.55;0.35;;;;;;;19.58;65.62;100913.94;4893497;29;20056;-66
2021/11/28 04:18:22;;;;;;;0.55;0.45;;;;;;;19.56;65.34;100920.28;4896612;29;20037;-66
2021/11/28 04:20:51;;;;;;;3.72;0.57;;;;;;;19.52;64.84;100932.81;4894287;29;20497;-66
2021/11/28 04:23:19;;;;;;;0.75;0.55;;;;;;;19.49;64.51;100941.78;4899283;29;20123;-66
2021/11/28 04:25:50;;;;;;;2.33;0.50;;;;;;;19.49;64.54;100941.78;4925319;29;20529;-66
2021/11/28 04:28:19;;;;;;;0.55;0.28;;;;;;;19.54;63.30;100940.81;4911985;29;20047;-66
2021/11/28 04:30:48;;;;;;;1.80;0.55;;;;;;;19.60;62.53;100952.31;4911789;29;20045;-65
2021/11/28 04:33:21;;;;;;;0.65;0.30;;;;;;;19.63;61.88;100954.91;4891389;29;20053;-66
2021/11/28 04:35:49;;;;;;;0.77;0.45;;;;;;;19.67;61.22;100958.44;4896714;29;20105;-66
2021/11/28 04:38:17;;;;;;;0.98;0.32;;;;;;;19.67;60.78;100962.00;4922336;29;20103;-65
2021/11/28 04:40:45;;;;;;;0.00;0.00;;;;;;;19.68;60.72;100958.41;4930274;29;20044;-66
2021/11/28 04:43:15;;;;;;;0.85;0.20;;;;;;;19.70;60.20;100969.09;4909538;29;20124;-66
2021/11/28 04:45:43;;;;;;;0.15;0.10;;;;;;;19.70;59.49;100966.41;4914559;29;20051;-66
2021/11/28 04:48:12;;;;;;;1.60;1.50;;;;;;;19.73;59.54;100969.03;4879451;29;20048;-66
2021/11/28 04:50:44;;;;;;;0.00;0.00;;;;;;;19.71;59.16;100976.22;4917830;29;20068;-66
2021/11/28 04:53:12;;;;;;;0.30;0.28;;;;;;;19.66;59.37;100978.97;4931293;29;20054;-65
2021/11/28 04:55:40;;;;;;;0.73;0.28;;;;;;;19.66;59.38;100986.13;4913363;29;20048;-66
2021/11/28 04:58:08;;;;;;;0.30;0.20;;;;;;;19.63;59.15;100987.06;4917647;29;20043;-65
2021/11/28 05:00:36;;;;;;;0.20;0.20;;;;;;;19.61;59.29;101002.31;4911553;29;20158;-66
2021/11/28 05:03:08;;;;;;;1.00;0.40;;;;;;;19.57;59.20;101013.97;4910652;29;20046;-66
2021/11/28 05:05:57;;;;;;;0.63;0.55;;;;;;;19.56;59.40;101030.94;4913477;29;20543;-66
2021/11/28 05:08:56;;;;;;;2.03;0.82;;;;;;;19.52;59.39;101055.13;4912248;29;20449;-66
2021/11/28 05:11:25;;;;;;;1.35;0.47;;;;;;;19.49;59.58;101056.06;4927167;29;20043;-65
2021/11/28 05:13:53;;;;;;;2.95;0.47;;;;;;;19.50;60.16;101052.47;4921513;29;20500;-65
2021/11/28 05:16:21;;;;;;;0.08;0.00;;;;;;;19.53;60.50;101048.84;4930468;29;20051;-66
2021/11/28 05:19:04;;;;;;;0.28;0.28;;;;;;;19.53;60.91;101040.81;4918700;29;20575;-66
2021/11/28 05:21:56;;;;;;;3.70;0.17;;;;;;;19.55;61.49;101047.94;4919530;29;20044;-65
2021/11/28 05:24:24;;;;;;;1.63;0.28;;;;;;;19.54;61.83;101043.47;4923900;29;20047;-65
2021/11/28 05:26:54;;;;;;;0.43;0.08;;;;;;;19.52;62.31;101045.28;4932776;29;20047;-65
2021/11/28 05:29:22;;;;;;;3.30;0.13;;;;;;;19.52;62.54;101061.38;4916456;29;20051;-66
2021/11/28 05:31:50;;;;;;;2.38;0.30;;;;;;;19.50;62.92;101063.16;4906303;29;20041;-66
2021/11/28 05:34:44;;;;;;;0.93;0.63;;;;;;;19.48;63.23;101055.19;4897377;29;20096;-66
2021/11/28 05:37:45;;;;;;;5.88;0.38;;;;;;;19.50;63.54;101057.81;4926221;29;20070;-65
2021/11/28 05:40:18;;;;;;;1.17;0.43;;;;;;;19.45;63.58;101056.97;4912008;29;20040;-65
2021/11/28 05:42:48;;;;;;;1.13;0.55;;;;;;;19.41;63.67;101049.91;4900319;29;20067;-66
2021/11/28 05:45:16;;;;;;;2.00;0.65;;;;;;;19.37;63.74;101048.19;4915596;29;20582;-65
2021/11/28 05:48:03;;;;;;;0.00;0.00;;;;;;;19.36;63.74;101051.78;4914699;29;20507;-65
2021/11/28 05:51:00;;;;;;;0.85;0.50;;;;;;;19.30;64.05;101055.41;4896707;29;20040;-65
2021/11/28 05:53:29;;;;;;;1.55;0.77;;;;;;;19.22;64.17;101059.16;4930039;29;20054;-65
2021/11/28 05:55:57;;;;;;;6.55;0.22;;;;;;;18.98;64.57;101055.91;4917384;29;20040;-66
2021/11/28 05:58:25;;;;;;;1.45;0.43;;;;;;;18.90;65.20;101055.16;4925040;29;20053;-65
2021/11/28 06:00:57;;;;;;;1.85;0.57;;;;;;;18.90;65.32;101051.59;4906682;29;20052;-66
2021/11/28 06:03:25;;;;;;;0.57;0.28;;;;;;;18.83;65.63;101049.91;4924586;29;20040;-66
2021/11/28 06:06:01;;;;;;;5.18;0.68;;;;;;;18.82;66.13;101069.53;4915306;29;20048;-65
2021/11/28 06:08:53;;;;;;;0.30;0.20;;;;;;;19.02;66.08;101086.19;4915054;29;20041;-65
2021/11/28 06:11:22;;;;;;;0.20;0.08;;;;;;;19.19;65.98;101088.63;4926261;29;20055;-65
2021/11/28 06:13:50;;;;;;;1.67;0.60;;;;;;;19.34;66.00;101083.06;4930605;29;20050;-66
2021/11/28 06:16:19;;;;;;;5.78;0.68;;;;;;;19.41;66.08;101082.94;4923853;29;20044;-65
2021/11/28 06:19:05;;;;;;;0.82;0.65;;;;;;;19.43;66.31;101081.09;4923901;29;20117;-65
2021/11/28 06:21:51;;;;;;;1.70;0.28;;;;;;;19.59;66.53;101105.00;4912892;29;20044;-66
2021/11/28 06:24:25;;;;;;;1.83;0.20;;;;;;;19.73;66.49;101103.00;4916425;29;20051;-66
2021/11/28 06:27:02;;;;;;;0.22;0.00;;;;;;;19.79;66.20;101090.38;4939613;29;20532;-66
2021/11/28 06:29:30;;;;;;;0.55;0.35;;;;;;;19.88;66.50;101102.75;4930964;29;20047;-66
2021/11/28 06:31:58;;;;;;;0.90;0.68;;;;;;;19.96;66.42;101107.94;4924650;29;20046;-66
2021/11/28 06:34:45;;;;;;;1.42;0.70;;;;;;;20.13;66.43;101116.59;4917036;29;20045;-65
2021/11/28 06:37:36;;;;;;;1.02;0.60;;;;;;;20.34;66.57;101112.66;4895354;29;20044;-66
2021/11/28 06:40:10;;;;;;;1.48;0.70;;;;;;;20.54;66.57;101108.69;4917120;29;20385;-66
2021/11/28 06:42:47;;;;;;;2.05;0.35;;;;;;;20.75;66.82;101106.47;4929431;29;20397;-65
2021/11/28 06:45:15;;;;;;;1.27;0.70;;;;;;;20.91;66.79;101095.41;4898489;29;20063;-66
2021/11/28 06:47:43;;;;;;;1.88;0.73;;;;;;;21.07;67.28;101093.25;4927760;29;20071;-66
2021/11/28 06:50:11;;;;;;;1.45;0.80;;;;;;;21.24;67.24;101106.34;4912623;29;20122;-66
2021/11/28 06:52:59;;;;;;;4.10;0.75;;;;;;;21.40;67.46;101097.88;4914071;29;20413;-66
2021/11/28 06:55:28;;;;;;;2.55;0.85;;;;;;;21.59;67.84;101100.16;4921492;29;20044;-66
2021/11/28 06:58:15;;;;;;;1.15;0.90;;;;;;;21.72;67.81;101105.19;4929458;29;20397;-66
2021/11/28 07:00:43;;;;;;;2.10;1.10;;;;;;;21.88;68.02;101111.94;4945697;29;20098;-66
2021/11/28 07:03:11;;;;;;;0.90;0.38;;;;;;;22.08;67.90;101108.75;4930742;29;20051;-66
2021/11/28 07:06:11;;;;;;;1.95;0.77;;;;;;;22.29;67.66;101122.56;4902435;29;20047;-66
2021/11/28 07:08:46;;;;;;;3.22;0.80;;;;;;;22.42;67.61;101124.88;4936251;29;20045;-66
2021/11/28 07:11:15;;;;;;;3.47;1.00;;;;;;;22.57;67.70;101119.09;4937234;29;20048;-66
2021/11/28 07:13:43;;;;;;;3.05;1.00;;;;;;;22.70;67.74;101126.81;4917825;29;20043;-66
2021/11/28 07:16:12;;;;;;;5.30;1.02;;;;;;;22.80;67.96;101142.69;4917515;29;20052;-66
2021/11/28 07:18:45;;;;;;;1.40;0.50;;;;;;;22.93;68.16;101141.41;4925089;29;20048;-67
2021/11/28 07:21:13;;;;;;;5.28;1.30;;;;;;;23.08;67.84;101133.78;4908097;29;20052;-67
2021/11/28 07:23:46;;;;;;;6.38;2.00;;;;;;;23.10;67.42;101140.03;4929932;29;20043;-66
2021/11/28 07:26:17;;;;;;;4.45;2.03;;;;;;;23.12;66.97;101144.44;4941322;29;20044;-66
2021/11/28 07:28:49;;;;;;;4.30;2.15;;;;;;;23.12;66.83;101152.50;4913037;29;20044;-67
2021/11/28 07:31:20;;;;;;;4.82;2.38;;;;;;;23.21;66.91;101146.84;4929215;29;20099;-66
2021/11/28 07:34:10;;;;;;;2.42;1.13;;;;;;;23.23;67.01;101136.03;4911383;29;20119;-66
2021/11/28 07:36:53;;;;;;;3.40;1.55;;;;;;;23.23;67.28;101139.63;4930301;29;20052;-66
2021/11/28 07:39:21;;;;;;;4.13;1.20;;;;;;;23.31;67.34;101137.53;4916125;29;20492;-66
2021/11/28 07:41:54;;;;;;;2.40;0.82;;;;;;;23.46;67.44;101114.63;4908763;29;20040;-66
2021/11/28 07:44:38;;;;;;;1.42;0.70;;;;;;;23.60;67.77;101122.31;4910370;29;20444;-66
2021/11/28 07:47:44;;;;;;;1.88;0.65;;;;;;;23.67;67.77;101135.53;4885010;29;20953;-66
2021/11/28 07:50:24;;;;;;;2.00;0.57;;;;;;;23.72;68.12;101155.16;4879434;29;20055;-66
2021/11/28 07:52:54;;;;;;;3.05;0.80;;;;;;;23.84;68.08;101148.47;4885420;29;20041;-67
2021/11/28 07:55:26;;;;;;;3.78;1.00;;;;;;;24.02;67.96;101147.88;4924391;29;20045;-66
2021/11/28 07:58:02;;;;;;;3.58;0.47;;;;;;;24.17;67.71;101130.25;4916360;29;20516;-66
2021/11/28 08:00:57;;;;;;;2.65;0.82;;;;;;;24.29;67.40;101107.38;4892678;29;20056;-66
2021/11/28 08:03:30;;;;;;;6.15;1.00;;;;;;;24.36;67.50;101101.72;4900549;29;20040;-66
2021/11/28 08:06:16;;;;;;;7.22;0.80;;;;;;;24.39;66.99;101101.63;4917021;29;20050;-66
2021/11/28 08:09:13;;;;;;;5.38;0.73;;;;;;;24.47;67.36;101118.44;4912839;28;20044;-66
2021/11/28 08:11:41;;;;;;;6.03;0.85;;;;;;;24.57;67.18;101114.44;4931730;29;20604;-66
2021/11/28 08:14:11;;;;;;;2.65;0.85;;;;;;;24.65;67.32;101110.59;4932047;29;20103;-66
2021/11/28 08:16:39;;;;;;;2.65;1.08;;;;;;;24.60;67.42;101117.06;4933070;29;20040;-66
2021/11/28 08:19:07;;;;;;;4.72;1.05;;;;;;;24.53;67.39;101111.94;4950354;29;20032;-66
2021/11/28 08:21:35;;;;;;;4.55;0.70;;;;;;;24.51;67.54;101117.38;4933465;29;20063;-66
2021/11/28 08:24:04;;;;;;;2.80;0.90;;;;;;;24.50;67.64;101125.53;4935602;29;20124;-66
2021/11/28 08:26:34;;;;;;;4.07;0.65;;;;;;;24.51;67.79;101120.06;4934215;29;20040;-66
2021/11/28 08:29:02;;;;;;;3.28;1.15;;;;;;;24.56;67.54;101112.69;4935012;29;20047;-66
2021/11/28 08:31:31;;;;;;;9.85;1.00;;;;;;;24.67;67.62;101112.31;4920191;29;20048;-66
2021/11/28 08:34:18;;;;;;;5.55;1.58;;;;;;;24.73;67.27;101114.78;4916527;29;20497;-66
2021/11/28 08:37:15;;;;;;;3.58;1.30;;;;;;;24.83;65.48;101093.69;4899721;29;20044;-67
2021/11/28 08:39:44;;;;;;;3.72;1.13;;;;;;;24.92;62.44;101077.19;4915872;29;20107;-67
2021/11/28 08:42:11;;;;;;;2.83;1.30;;;;;;;24.89;58.46;101083.56;4916218;29;20060;-67
2021/11/28 08:44:39;;;;;;;4.82;1.33;;;;;;;24.76;56.92;101075.94;4916353;29;20121;-67
2021/11/28 08:47:08;;;;;;;6.25;1.25;;;;;;;24.65;56.83;101061.97;4930025;29;20064;-66
2021/11/28 08:49:39;;;;;;;2.80;0.80;;;;;;;24.58;56.80;101086.50;4934215;29;20043;-67
2021/11/28 08:52:07;;;;;;;5.03;0.88;;;;;;;24.60;56.42;101094.56;4935264;29;20390;-66
2021/11/28 08:54:36;;;;;;;2.25;0.80;;;;;;;24.61;56.67;101107.97;4933811;29;20040;-66
2021/11/28 08:57:04;;;;;;;5.18;2.25;;;;;;;24.67;56.59;101095.22;4935132;29;20095;-66
2021/11/28 08:59:32;;;;;;;14.55;1.92;;;;;;;24.71;56.50;101094.16;4933693;29;20067;-67
2021/11/28 09:01:59;;;;;;;3.33;1.42;;;;;;;24.72;55.86;101094.09;4933171;29;20040;-66
2021/11/28 09:04:28;;;;;;;7.32;3.47;;;;;;;24.76;56.13;101094.84;4934999;29;20135;-67
2021/11/28 09:06:56;;;;;;;3.25;0.90;;;;;;;24.78;55.65;101091.16;4934659;29;20497;-67
2021/11/28 09:09:24;;;;;;;5.53;1.42;;;;;;;24.77;55.70;101078.59;4934937;29;20500;-67
2021/11/28 09:11:53;;;;;;;3.70;1.10;;;;;;;24.75;55.37;101074.19;4934869;29;20040;-67
2021/11/28 09:14:21;;;;;;;5.43;0.73;;;;;;;24.74;55.56;101064.34;4934631;29;20178;-66
2021/11/28 09:16:49;;;;;;;5.57;1.25;;;;;;;24.73;55.00;101055.38;4918157;29;20052;-66
2021/11/28 09:19:20;;;;;;;3.03;0.80;;;;;;;24.73;55.00;101068.88;4915819;29;20044;-66
2021/11/28 09:21:49;;;;;;;4.82;1.13;;;;;;;24.74;55.09;101057.13;4911830;29;20048;-67
2021/11/28 09:27:02;;;;;;;1.35;0.70;;;;;;;24.75;54.77;101047.19;4913452;29;20091;-66
2021/11/28 09:29:29;;;;;;;2.78;1.15;;;;;;;24.75;54.87;101053.47;4915391;29;20044;-67
2021/11/28 09:31:57;;;;;;;2.22;0.98;;;;;;;24.78;54.69;101042.56;4914233;29;20463;-67
2021/11/28 09:34:26;;;;;;;3.13;1.10;;;;;;;24.80;54.46;101056.00;4919784;29;20044;-67
2021/11/28 09:36:55;;;;;;;5.03;1.52;;;;;;;24.80;54.55;101056.91;4934024;29;20062;-66
2021/11/28 09:39:23;;;;;;;3.53;1.00;;;;;;;24.81;54.07;101055.91;4917290;29;20119;-67
2021/11/28 09:41:55;;;;;;;5.30;1.50;;;;;;;24.77;54.07;101057.00;4934016;29;20508;-67
2021/11/28 09:44:25;;;;;;;5.32;1.70;;;;;;;24.78;54.14;101056.06;4934241;29;20047;-66
2021/11/28 09:46:54;;;;;;;6.95;2.92;;;;;;;24.83;54.19;101045.06;4933092;29;20035;-67
2021/11/28 09:49:26;;;;;;;4.97;0.98;;;;;;;24.92;54.09;101056.44;4933987;29;20036;-66
2021/11/28 09:51:56;;;;;;;3.58;1.27;;;;;;;25.00;53.86;101058.84;4915491;29;20040;-66
2021/11/28 09:54:25;;;;;;;2.80;0.77;;;;;;;25.06;53.25;101049.63;4933798;29;20044;-66
2021/11/28 09:56:53;;;;;;;1.58;1.05;;;;;;;25.07;52.68;101044.16;4933605;29;20098;-66
2021/11/28 09:59:22;;;;;;;2.80;0.68;;;;;;;25.06;52.39;101039.69;4934352;29;20496;-66
2021/11/28 10:01:50;;;;;;;4.28;0.95;;;;;;;25.03;52.42;101042.50;4916989;29;20509;-66
2021/11/28 10:04:18;;;;;;;4.43;1.00;;;;;;;25.05;52.39;101023.53;4933656;29;20476;-67
2021/11/28 10:06:47;;;;;;;5.00;1.70;;;;;;;24.98;52.39;101023.78;4932945;29;20127;-67
2021/11/28 10:09:16;;;;;;;3.17;0.80;;;;;;;24.92;52.97;101018.63;4915067;29;20044;-67
2021/11/28 10:12:24;;;;;;;3.13;0.93;;;;;;;24.90;53.11;101017.78;4914531;29;20080;-67
2021/11/28 10:14:53;;;;;;;1.33;0.65;;;;;;;24.85;53.43;101021.59;4913007;29;20044;-67
2021/11/28 10:17:24;;;;;;;3.75;1.30;;;;;;;24.88;53.66;101007.94;4914225;29;20044;-67
2021/11/28 10:19:52;;;;;;;3.67;1.15;;;;;;;24.85;53.54;101008.97;4914174;29;20131;-67
2021/11/28 10:22:20;;;;;;;5.80;1.88;;;;;;;24.77;53.44;100997.56;4922765;29;20547;-67
2021/11/28 10:25:15;;;;;;;4.70;1.42;;;;;;;24.76;53.91;100997.63;4933206;29;20459;-67
2021/11/28 10:27:45;;;;;;;4.70;0.90;;;;;;;24.76;53.93;101013.84;4933054;29;20044;-66
2021/11/28 10:30:15;;;;;;;3.72;0.85;;;;;;;24.80;54.07;101010.09;4933250;29;20441;-66
2021/11/28 10:32:49;;;;;;;2.42;1.13;;;;;;;24.79;53.97;101008.31;4929483;29;20055;-66
2021/11/28 10:35:17;;;;;;;;;;;;;;;24.78;54.30;101010.16;4914871;29;20059;-67
2021/11/28 10:37:47;;;;;;;4.40;0.80;;;;;;;24.78;54.17;101009.25;4915356;29;19922;-66
2021/11/28 10:40:20;;;;;;;4.72;1.33;;;;;;;24.79;53.63;100997.53;4932092;29;20043;-67
2021/11/28 10:42:50;;;;;;;3.92;0.68;;;;;;;24.73;53.64;100978.88;4929658;29;20039;-67
2021/11/28 10:45:20;;;;;;;3.63;0.88;;;;;;;24.71;53.61;100997.81;4916039;29;20103;-66
2021/11/28 10:47:50;;;;;;;4.13;1.60;;;;;;;24.63;53.53;100995.41;4916300;29;20043;-67
2021/11/28 10:50:22;;;;;;;2.17;0.85;;;;;;;24.58;53.45;100999.22;4933153;29;20059;-67
2021/11/28 10:52:52;;;;;;;2.03;0.80;;;;;;;24.58;53.59;101010.91;4914288;29;20051;-67
2021/11/28 10:55:27;;;;;;;4.07;1.17;;;;;;;24.54;52.83;101001.19;4931371;29;20048;-67
2021/11/28 10:58:08;;;;;;;4.05;1.08;;;;;;;24.51;53.21;100986.91;4915235;29;20051;-67
2021/11/28 11:00:37;;;;;;;4.28;1.05;;;;;;;24.50;53.69;100986.03;4897594;29;20400;-67
2021/11/28 11:03:19;;;;;;;4.28;1.20;;;;;;;24.55;53.71;100984.03;4913624;29;20100;-67
2021/11/28 11:05:49;;;;;;;2.22;0.60;;;;;;;24.56;53.04;100971.41;4914213;29;20048;-67
2021/11/28 11:08:18;;;;;;;4.35;0.80;;;;;;;24.50;52.60;100986.03;4913824;29;20424;-67
2021/11/28 11:10:50;;;;;;;2.70;0.85;;;;;;;24.52;52.84;100983.28;4913637;29;20052;-67
2021/11/28 11:13:20;;;;;;;1.27;0.73;;;;;;;24.51;52.60;100968.88;4913327;29;20441;-67
2021/11/28 11:15:49;;;;;;;0.75;0.43;;;;;;;24.51;51.95;100978.81;4911261;29;20070;-67
2021/11/28 11:18:19;;;;;;;2.97;1.42;;;;;;;24.50;52.14;100972.53;4932920;29;20790;-67
2021/11/28 11:20:50;;;;;;;2.42;1.50;;;;;;;24.49;52.20;100991.47;4915103;29;20048;-66
2021/11/28 11:23:36;;;;;;;4.65;1.20;;;;;;;24.49;52.42;100984.25;4918917;29;20051;-67
2021/11/28 11:26:20;;;;;;;2.75;0.80;;;;;;;24.50;52.51;100975.22;4946537;29;20046;-67
2021/11/28 11:29:07;;;;;;;2.13;1.23;;;;;;;24.52;52.09;100981.44;4946718;28;20040;-67
2021/11/28 11:31:35;;;;;;;4.47;0.98;;;;;;;24.50;52.05;100974.34;4932008;29;20063;-67
2021/11/28 11:34:04;;;;;;;3.58;0.90;;;;;;;24.47;51.42;100961.88;4930614;29;20407;-67
2021/11/28 11:36:52;;;;;;;3.80;0.95;;;;;;;24.44;51.37;100966.47;4918672;29;20040;-67
2021/11/28 11:39:20;;;;;;;4.40;1.38;;;;;;;24.31;51.14;100963.38;4912729;29;20056;-67
2021/11/28 11:41:50;;;;;;;2.67;0.90;;;;;;;24.22;51.70;100966.41;4913298;29;20528;-66
2021/11/28 11:44:19;;;;;;;4.97;0.75;;;;;;;24.18;52.11;100953.94;4913566;29;20048;-66
2021/11/28 11:46:47;;;;;;;1.52;0.65;;;;;;;24.14;52.33;100944.22;4912001;29;20075;-66
2021/11/28 11:49:15;;;;;;;2.95;1.13;;;;;;;24.17;52.09;100952.19;4927570;29;20131;-66
2021/11/28 11:51:46;;;;;;;6.22;0.90;;;;;;;24.17;52.56;100941.38;4932413;29;20079;-67
2021/11/28 11:54:19;;;;;;;2.50;1.20;;;;;;;24.08;52.31;100936.34;4931973;29;20096;-67